createdAt,value
2023-05-22T00:00:08.086Z,8.60
2023-05-22T00:02:57.622Z,9.10
2023-05-22T00:05:27.433Z,9.20
2023-05-22T00:07:54.638Z,9.20
2023-05-22T00:10:22.046Z,9.20
2023-05-22T00:12:49.229Z,8.40
2023-05-22T00:15:19.408Z,8.90
2023-05-22T00:17:47.229Z,8.40
2023-05-22T00:20:14.966Z,9.00
2023-05-22T00:22:42.712Z,8.60
2023-05-22T00:25:10.741Z,8.50
2023-05-22T00:27:37.803Z,8.50
2023-05-22T00:30:07.277Z,8.00
2023-05-22T00:32:35.402Z,8.40
2023-05-22T00:35:03.073Z,8.70
2023-05-22T00:37:30.267Z,9.70
2023-05-22T00:39:57.573Z,8.70
2023-05-22T00:42:25.625Z,8.40
2023-05-22T00:44:52.876Z,8.70
2023-05-22T00:47:20.742Z,8.70
2023-05-22T00:49:50.428Z,7.80
2023-05-22T00:52:18.740Z,8.10
2023-05-22T00:54:46.635Z,8.30
2023-05-22T00:57:13.952Z,8.60
2023-05-22T00:59:41.153Z,7.80
2023-05-22T01:02:08.690Z,7.90
2023-05-22T01:04:36.822Z,7.70
2023-05-22T01:07:05.679Z,8.30
2023-05-22T01:09:32.910Z,8.20
2023-05-22T01:12:23.549Z,9.20
2023-05-22T01:15:18.663Z,8.80
2023-05-22T01:17:59.255Z,8.30
2023-05-22T01:20:42.899Z,8.60
2023-05-22T01:23:09.971Z,7.50
2023-05-22T01:25:59.224Z,8.30
2023-05-22T01:28:52.710Z,8.10
2023-05-22T01:31:27.099Z,8.30
2023-05-22T01:34:00.816Z,8.40
2023-05-22T01:36:32.033Z,8.10
2023-05-22T01:39:01.006Z,8.60
2023-05-22T01:41:29.362Z,7.70
2023-05-22T01:43:56.967Z,7.10
2023-05-22T01:46:28.685Z,7.70
2023-05-22T01:48:56.595Z,8.20
2023-05-22T01:51:48.406Z,8.60
2023-05-22T01:54:35.964Z,7.80
2023-05-22T01:57:09.787Z,8.10
2023-05-22T01:59:45.096Z,7.60
2023-05-22T02:02:16.175Z,7.80
2023-05-22T02:04:49.122Z,7.40
2023-05-22T02:07:19.325Z,8.00
2023-05-22T02:09:48.437Z,8.20
2023-05-22T02:12:15.888Z,8.00
2023-05-22T02:14:43.444Z,8.00
2023-05-22T02:17:13.818Z,7.40
2023-05-22T02:19:40.974Z,7.80
2023-05-22T02:22:09.587Z,6.50
2023-05-22T02:24:39.260Z,7.10
2023-05-22T02:27:06.821Z,6.70
2023-05-22T02:29:36.334Z,7.40
2023-05-22T02:32:03.984Z,7.00
2023-05-22T02:34:34.613Z,6.90
2023-05-22T02:37:05.070Z,6.50
2023-05-22T02:39:32.710Z,6.70
2023-05-22T02:42:00.381Z,7.30
2023-05-22T02:44:29.971Z,7.30
2023-05-22T02:46:57.355Z,7.50
2023-05-22T02:49:24.684Z,7.80
2023-05-22T02:51:51.977Z,7.20
2023-05-22T02:54:19.262Z,7.60
2023-05-22T02:56:46.517Z,7.90
2023-05-22T02:59:13.734Z,7.50
2023-05-22T03:01:40.869Z,8.00
2023-05-22T03:04:08.054Z,7.40
2023-05-22T03:06:36.670Z,7.00
2023-05-22T03:09:04.320Z,7.10
2023-05-22T03:11:31.939Z,6.70
2023-05-22T03:13:59.136Z,7.70
2023-05-22T03:16:26.474Z,7.80
2023-05-22T03:19:13.584Z,7.00
2023-05-22T03:21:43.494Z,7.10
2023-05-22T03:24:13.324Z,7.50
2023-05-22T03:26:41.443Z,7.50
2023-05-22T03:29:10.864Z,8.10
2023-05-22T03:31:40.028Z,8.60
2023-05-22T03:34:09.418Z,7.70
2023-05-22T03:36:37.573Z,7.80
2023-05-22T03:39:05.956Z,7.10
2023-05-22T03:41:36.679Z,7.50
2023-05-22T03:44:04.422Z,7.20
2023-05-22T03:46:33.186Z,7.70
2023-05-22T03:49:00.363Z,7.40
2023-05-22T03:51:27.872Z,7.80
2023-05-22T03:53:55.088Z,7.50
2023-05-22T03:56:25.195Z,7.60
2023-05-22T03:58:52.402Z,7.70
2023-05-22T04:01:22.132Z,8.60
2023-05-22T04:03:49.348Z,8.10
2023-05-22T04:06:17.231Z,8.20
2023-05-22T04:08:44.412Z,8.20
2023-05-22T04:11:15.240Z,8.20
2023-05-22T04:13:42.842Z,8.00
2023-05-22T04:16:10.050Z,7.80
2023-05-22T04:18:38.066Z,8.00
2023-05-22T04:21:09.089Z,8.80
2023-05-22T04:23:36.747Z,8.50
2023-05-22T04:26:08.204Z,8.70
2023-05-22T04:28:35.633Z,9.00
2023-05-22T04:31:05.938Z,8.00
2023-05-22T04:33:36.363Z,8.80
2023-05-22T04:36:04.570Z,8.40
2023-05-22T04:38:36.083Z,9.50
2023-05-22T04:41:03.241Z,9.40
2023-05-22T04:43:31.954Z,8.60
2023-05-22T04:45:58.998Z,9.70
2023-05-22T04:48:28.582Z,9.50
2023-05-22T04:50:57.114Z,10.50
2023-05-22T04:53:27.095Z,12.30
2023-05-22T04:55:54.347Z,12.30
2023-05-22T04:58:23.068Z,12.30
2023-05-22T05:00:53.179Z,12.20
2023-05-22T05:03:28.165Z,11.50
2023-05-22T05:05:56.321Z,10.00
2023-05-22T05:08:23.442Z,10.60
2023-05-22T05:10:52.896Z,10.70
2023-05-22T05:13:20.212Z,10.40
2023-05-22T05:15:48.522Z,10.50
2023-05-22T05:18:16.771Z,9.90
2023-05-22T05:20:44.109Z,8.60
2023-05-22T05:23:11.520Z,8.00
2023-05-22T05:25:38.935Z,7.60
2023-05-22T05:28:10.885Z,7.80
2023-05-22T05:30:40.220Z,8.40
2023-05-22T05:33:27.293Z,8.40
2023-05-22T05:36:02.076Z,8.30
2023-05-22T05:38:29.810Z,9.20
2023-05-22T05:40:57.640Z,8.80
2023-05-22T05:43:25.784Z,8.10
2023-05-22T05:45:57.207Z,6.10
2023-05-22T05:48:27.431Z,7.20
2023-05-22T05:50:54.696Z,5.40
2023-05-22T05:53:22.319Z,6.60
2023-05-22T05:55:59.846Z,5.60
2023-05-22T05:58:32.055Z,8.70
2023-05-22T06:01:19.654Z,5.80
2023-05-22T06:03:47.305Z,4.50
2023-05-22T06:06:21.268Z,5.00
2023-05-22T06:09:07.202Z,4.40
2023-05-22T06:11:37.929Z,5.50
2023-05-22T06:14:07.230Z,4.50
2023-05-22T06:16:35.131Z,5.40
2023-05-22T06:19:04.169Z,4.30
2023-05-22T06:21:31.953Z,4.70
2023-05-22T06:24:00.199Z,4.30
2023-05-22T06:26:28.248Z,4.60
2023-05-22T06:28:55.492Z,5.10
2023-05-22T06:31:24.035Z,5.00
2023-05-22T06:33:51.865Z,4.60
2023-05-22T06:36:20.041Z,5.50
2023-05-22T06:38:49.145Z,5.90
2023-05-22T06:41:38.583Z,5.00
2023-05-22T06:44:07.271Z,4.70
2023-05-22T06:46:38.899Z,4.30
2023-05-22T06:49:07.715Z,4.60
2023-05-22T06:51:48.641Z,4.70
2023-05-22T06:54:17.437Z,5.00
2023-05-22T06:56:48.679Z,5.20
2023-05-22T06:59:20.318Z,4.20
2023-05-22T07:02:10.480Z,4.50
2023-05-22T07:04:49.236Z,4.60
2023-05-22T07:07:23.650Z,4.90
2023-05-22T07:09:57.354Z,5.70
2023-05-22T07:12:27.774Z,4.30
2023-05-22T07:15:01.213Z,5.10
2023-05-22T07:17:32.495Z,5.40
2023-05-22T07:20:00.180Z,3.80
2023-05-22T07:22:28.132Z,4.20
2023-05-22T07:24:59.233Z,3.80
2023-05-22T07:27:33.216Z,4.00
2023-05-22T07:30:01.133Z,4.40
2023-05-22T07:32:36.953Z,4.30
2023-05-22T07:35:05.421Z,3.60
2023-05-22T07:37:35.587Z,3.00
2023-05-22T07:40:06.329Z,2.90
2023-05-22T07:42:37.976Z,2.90
2023-05-22T07:45:06.508Z,3.00
2023-05-22T07:47:34.613Z,2.80
2023-05-22T07:50:04.796Z,2.80
2023-05-22T07:52:32.543Z,2.60
2023-05-22T07:55:00.574Z,2.90
2023-05-22T07:57:29.299Z,3.50
2023-05-22T07:59:58.927Z,2.90
2023-05-22T08:02:26.730Z,3.40
2023-05-22T08:04:54.039Z,3.40
2023-05-22T08:07:21.316Z,3.30
2023-05-22T08:09:48.861Z,3.00
2023-05-22T08:12:16.150Z,3.20
2023-05-22T08:14:43.436Z,3.40
2023-05-22T08:17:10.888Z,3.10
2023-05-22T08:19:38.318Z,3.00
2023-05-22T08:22:05.956Z,3.10
2023-05-22T08:24:33.153Z,3.00
2023-05-22T08:27:00.428Z,3.30
2023-05-22T08:29:28.249Z,2.90
2023-05-22T08:31:56.512Z,3.30
2023-05-22T08:34:24.990Z,3.30
2023-05-22T08:36:52.231Z,3.10
2023-05-22T08:39:22.186Z,3.10
2023-05-22T08:41:49.506Z,3.50
2023-05-22T08:44:19.462Z,3.10
2023-05-22T08:46:46.711Z,2.90
2023-05-22T08:49:15.809Z,3.20
